sensor_id;sensor_type;location;lat;lon;timestamp;temperature;humidity
82126;DHT22;71668;51.400;6.758;2023-07-28T00:01:57;19.30;75.30
82126;DHT22;71668;51.400;6.758;2023-07-28T00:04:24;19.30;75.40
82126;DHT22;71668;51.400;6.758;2023-07-28T00:06:51;19.30;75.50
82126;DHT22;71668;51.400;6.758;2023-07-28T00:09:18;19.30;75.70
82126;DHT22;71668;51.400;6.758;2023-07-28T00:11:45;19.20;75.70
82126;DHT22;71668;51.400;6.758;2023-07-28T00:14:12;19.20;75.80
82126;DHT22;71668;51.400;6.758;2023-07-28T00:16:39;19.20;75.90
82126;DHT22;71668;51.400;6.758;2023-07-28T00:19:06;19.20;76.20
82126;DHT22;71668;51.400;6.758;2023-07-28T00:21:33;19.20;76.10
82126;DHT22;71668;51.400;6.758;2023-07-28T00:24:00;19.30;75.40
82126;DHT22;71668;51.400;6.758;2023-07-28T00:26:26;19.50;75.10
82126;DHT22;71668;51.400;6.758;2023-07-28T00:28:53;19.60;74.70
82126;DHT22;71668;51.400;6.758;2023-07-28T00:31:20;19.60;74.30
82126;DHT22;71668;51.400;6.758;2023-07-28T00:33:47;19.70;74.20
82126;DHT22;71668;51.400;6.758;2023-07-28T00:36:14;19.60;74.40
82126;DHT22;71668;51.400;6.758;2023-07-28T00:38:41;19.50;74.70
82126;DHT22;71668;51.400;6.758;2023-07-28T00:41:07;19.50;75.20
82126;DHT22;71668;51.400;6.758;2023-07-28T00:43:34;19.50;75.40
82126;DHT22;71668;51.400;6.758;2023-07-28T00:46:01;19.40;75.50
82126;DHT22;71668;51.400;6.758;2023-07-28T00:48:28;19.40;75.60
82126;DHT22;71668;51.400;6.758;2023-07-28T00:50:55;19.40;75.60
82126;DHT22;71668;51.400;6.758;2023-07-28T00:53:23;19.30;75.50
82126;DHT22;71668;51.400;6.758;2023-07-28T00:55:51;19.30;75.50
82126;DHT22;71668;51.400;6.758;2023-07-28T00:58:18;19.30;75.60
82126;DHT22;71668;51.400;6.758;2023-07-28T01:00:45;19.30;75.60
82126;DHT22;71668;51.400;6.758;2023-07-28T01:03:13;19.30;75.70
82126;DHT22;71668;51.400;6.758;2023-07-28T01:05:58;19.30;75.80
82126;DHT22;71668;51.400;6.758;2023-07-28T01:11:21;19.30;76.00
82126;DHT22;71668;51.400;6.758;2023-07-28T01:13:48;19.20;76.10
82126;DHT22;71668;51.400;6.758;2023-07-28T01:16:15;19.30;76.30
82126;DHT22;71668;51.400;6.758;2023-07-28T01:18:42;19.20;76.30
82126;DHT22;71668;51.400;6.758;2023-07-28T01:21:16;19.20;76.40
82126;DHT22;71668;51.400;6.758;2023-07-28T01:24:01;19.30;76.60
82126;DHT22;71668;51.400;6.758;2023-07-28T01:26:36;19.30;77.00
82126;DHT22;71668;51.400;6.758;2023-07-28T01:29:05;19.30;76.50
82126;DHT22;71668;51.400;6.758;2023-07-28T01:31:32;19.30;76.50
82126;DHT22;71668;51.400;6.758;2023-07-28T01:33:59;19.20;76.40
82126;DHT22;71668;51.400;6.758;2023-07-28T01:36:26;19.30;76.60
82126;DHT22;71668;51.400;6.758;2023-07-28T01:38:53;19.20;76.50
82126;DHT22;71668;51.400;6.758;2023-07-28T01:41:20;19.20;76.60
82126;DHT22;71668;51.400;6.758;2023-07-28T01:43:47;19.20;76.90
82126;DHT22;71668;51.400;6.758;2023-07-28T01:46:14;19.20;77.10
82126;DHT22;71668;51.400;6.758;2023-07-28T01:48:41;19.20;77.20
82126;DHT22;71668;51.400;6.758;2023-07-28T01:51:08;19.20;77.20
82126;DHT22;71668;51.400;6.758;2023-07-28T01:53:35;19.20;77.30
82126;DHT22;71668;51.400;6.758;2023-07-28T01:56:02;19.20;77.50
82126;DHT22;71668;51.400;6.758;2023-07-28T01:58:28;19.10;77.50
82126;DHT22;71668;51.400;6.758;2023-07-28T02:00:55;19.10;77.60
82126;DHT22;71668;51.400;6.758;2023-07-28T02:03:22;19.10;77.80
82126;DHT22;71668;51.400;6.758;2023-07-28T02:05:50;19.10;77.90
82126;DHT22;71668;51.400;6.758;2023-07-28T02:08:17;19.10;78.00
82126;DHT22;71668;51.400;6.758;2023-07-28T02:10:44;19.00;78.10
82126;DHT22;71668;51.400;6.758;2023-07-28T02:13:11;19.00;78.30
82126;DHT22;71668;51.400;6.758;2023-07-28T02:15:38;19.10;78.40
82126;DHT22;71668;51.400;6.758;2023-07-28T02:18:07;19.10;78.30
82126;DHT22;71668;51.400;6.758;2023-07-28T02:20:34;19.10;78.30
82126;DHT22;71668;51.400;6.758;2023-07-28T02:23:02;19.10;78.30
82126;DHT22;71668;51.400;6.758;2023-07-28T02:25:29;19.20;78.20
82126;DHT22;71668;51.400;6.758;2023-07-28T02:27:57;19.10;78.60
82126;DHT22;71668;51.400;6.758;2023-07-28T02:30:24;19.20;78.00
82126;DHT22;71668;51.400;6.758;2023-07-28T02:32:51;19.20;78.00
82126;DHT22;71668;51.400;6.758;2023-07-28T02:35:18;19.20;77.90
82126;DHT22;71668;51.400;6.758;2023-07-28T02:37:48;19.20;77.90
82126;DHT22;71668;51.400;6.758;2023-07-28T02:40:15;19.20;77.90
82126;DHT22;71668;51.400;6.758;2023-07-28T02:42:42;19.20;77.90
82126;DHT22;71668;51.400;6.758;2023-07-28T02:45:09;19.20;77.90
82126;DHT22;71668;51.400;6.758;2023-07-28T02:47:37;19.20;77.90
82126;DHT22;71668;51.400;6.758;2023-07-28T02:50:04;19.20;77.90
82126;DHT22;71668;51.400;6.758;2023-07-28T02:52:32;19.20;77.90
82126;DHT22;71668;51.400;6.758;2023-07-28T02:54:59;19.20;77.80
82126;DHT22;71668;51.400;6.758;2023-07-28T02:57:27;19.20;77.70
82126;DHT22;71668;51.400;6.758;2023-07-28T02:59:54;19.20;77.70
82126;DHT22;71668;51.400;6.758;2023-07-28T03:02:21;19.20;77.70
82126;DHT22;71668;51.400;6.758;2023-07-28T03:04:49;19.20;77.80
82126;DHT22;71668;51.400;6.758;2023-07-28T03:07:16;19.20;77.80
82126;DHT22;71668;51.400;6.758;2023-07-28T03:09:48;19.20;77.80
82126;DHT22;71668;51.400;6.758;2023-07-28T03:12:15;19.20;77.90
82126;DHT22;71668;51.400;6.758;2023-07-28T03:14:41;19.20;78.00
82126;DHT22;71668;51.400;6.758;2023-07-28T03:17:08;19.20;78.10
82126;DHT22;71668;51.400;6.758;2023-07-28T03:19:38;19.20;78.20
82126;DHT22;71668;51.400;6.758;2023-07-28T03:22:05;19.20;78.30
82126;DHT22;71668;51.400;6.758;2023-07-28T03:24:32;19.20;78.50
82126;DHT22;71668;51.400;6.758;2023-07-28T03:26:59;19.20;78.60
82126;DHT22;71668;51.400;6.758;2023-07-28T03:29:26;19.20;78.60
82126;DHT22;71668;51.400;6.758;2023-07-28T03:31:53;19.20;78.70
82126;DHT22;71668;51.400;6.758;2023-07-28T03:34:19;19.20;78.80
82126;DHT22;71668;51.400;6.758;2023-07-28T03:36:47;19.20;78.80
82126;DHT22;71668;51.400;6.758;2023-07-28T03:39:15;19.20;78.80
82126;DHT22;71668;51.400;6.758;2023-07-28T03:41:45;19.20;78.80
82126;DHT22;71668;51.400;6.758;2023-07-28T03:44:12;19.20;78.80
82126;DHT22;71668;51.400;6.758;2023-07-28T03:46:39;19.20;78.80
82126;DHT22;71668;51.400;6.758;2023-07-28T03:49:06;19.20;78.80
82126;DHT22;71668;51.400;6.758;2023-07-28T03:51:33;19.20;78.70
82126;DHT22;71668;51.400;6.758;2023-07-28T03:54:00;19.30;78.80
82126;DHT22;71668;51.400;6.758;2023-07-28T03:56:27;19.30;78.70
82126;DHT22;71668;51.400;6.758;2023-07-28T03:58:55;19.30;78.80
82126;DHT22;71668;51.400;6.758;2023-07-28T04:01:22;19.30;78.80
82126;DHT22;71668;51.400;6.758;2023-07-28T04:03:49;19.30;79.30
82126;DHT22;71668;51.400;6.758;2023-07-28T04:06:16;19.30;78.80
82126;DHT22;71668;51.400;6.758;2023-07-28T04:08:43;19.30;78.80
82126;DHT22;71668;51.400;6.758;2023-07-28T04:11:10;19.30;78.90
82126;DHT22;71668;51.400;6.758;2023-07-28T04:13:36;19.30;78.90
82126;DHT22;71668;51.400;6.758;2023-07-28T04:16:03;19.30;78.80
82126;DHT22;71668;51.400;6.758;2023-07-28T04:18:30;19.30;78.90
82126;DHT22;71668;51.400;6.758;2023-07-28T04:20:58;19.30;78.80
82126;DHT22;71668;51.400;6.758;2023-07-28T04:23:25;19.30;78.80
82126;DHT22;71668;51.400;6.758;2023-07-28T04:25:52;19.40;78.90
82126;DHT22;71668;51.400;6.758;2023-07-28T04:28:19;19.40;78.80
82126;DHT22;71668;51.400;6.758;2023-07-28T04:30:47;19.40;78.70
82126;DHT22;71668;51.400;6.758;2023-07-28T04:33:33;19.40;78.60
82126;DHT22;71668;51.400;6.758;2023-07-28T04:36:04;19.40;78.70
82126;DHT22;71668;51.400;6.758;2023-07-28T04:38:34;19.50;78.70
82126;DHT22;71668;51.400;6.758;2023-07-28T04:41:01;19.50;78.60
82126;DHT22;71668;51.400;6.758;2023-07-28T04:43:45;19.50;78.50
82126;DHT22;71668;51.400;6.758;2023-07-28T04:46:12;19.50;78.40
82126;DHT22;71668;51.400;6.758;2023-07-28T04:48:47;19.50;78.30
82126;DHT22;71668;51.400;6.758;2023-07-28T04:51:32;19.60;78.40
82126;DHT22;71668;51.400;6.758;2023-07-28T04:54:18;19.60;78.20
82126;DHT22;71668;51.400;6.758;2023-07-28T04:56:44;19.70;78.10
82126;DHT22;71668;51.400;6.758;2023-07-28T04:59:12;19.70;78.00
82126;DHT22;71668;51.400;6.758;2023-07-28T05:01:39;19.80;77.90
82126;DHT22;71668;51.400;6.758;2023-07-28T05:04:06;19.80;77.70
82126;DHT22;71668;51.400;6.758;2023-07-28T05:06:33;19.90;77.60
82126;DHT22;71668;51.400;6.758;2023-07-28T05:09:00;19.90;77.40
82126;DHT22;71668;51.400;6.758;2023-07-28T05:11:36;20.00;77.30
82126;DHT22;71668;51.400;6.758;2023-07-28T05:14:03;20.00;77.20
82126;DHT22;71668;51.400;6.758;2023-07-28T05:16:32;20.00;77.10
82126;DHT22;71668;51.400;6.758;2023-07-28T05:19:12;19.90;77.20
82126;DHT22;71668;51.400;6.758;2023-07-28T05:21:57;19.80;77.30
82126;DHT22;71668;51.400;6.758;2023-07-28T05:24:43;19.80;77.40
82126;DHT22;71668;51.400;6.758;2023-07-28T05:27:11;19.80;77.50
82126;DHT22;71668;51.400;6.758;2023-07-28T05:29:42;19.80;77.50
82126;DHT22;71668;51.400;6.758;2023-07-28T05:32:09;19.90;77.50
82126;DHT22;71668;51.400;6.758;2023-07-28T05:34:56;19.90;77.40
82126;DHT22;71668;51.400;6.758;2023-07-28T05:37:23;20.00;77.30
82126;DHT22;71668;51.400;6.758;2023-07-28T05:39:50;20.00;77.10
82126;DHT22;71668;51.400;6.758;2023-07-28T05:42:18;20.10;77.10
82126;DHT22;71668;51.400;6.758;2023-07-28T05:44:46;20.10;77.00
82126;DHT22;71668;51.400;6.758;2023-07-28T05:47:13;20.10;77.00
82126;DHT22;71668;51.400;6.758;2023-07-28T05:49:40;20.10;77.00
82126;DHT22;71668;51.400;6.758;2023-07-28T05:52:07;20.10;77.00
82126;DHT22;71668;51.400;6.758;2023-07-28T05:54:34;20.00;77.00
82126;DHT22;71668;51.400;6.758;2023-07-28T05:57:01;20.00;77.10
82126;DHT22;71668;51.400;6.758;2023-07-28T05:59:28;20.00;77.10
82126;DHT22;71668;51.400;6.758;2023-07-28T06:01:55;20.00;77.20
82126;DHT22;71668;51.400;6.758;2023-07-28T06:04:33;20.00;77.30
82126;DHT22;71668;51.400;6.758;2023-07-28T06:07:03;20.00;77.20
82126;DHT22;71668;51.400;6.758;2023-07-28T06:09:30;20.00;77.20
82126;DHT22;71668;51.400;6.758;2023-07-28T06:11:56;20.00;77.10
82126;DHT22;71668;51.400;6.758;2023-07-28T06:14:26;20.10;77.20
82126;DHT22;71668;51.400;6.758;2023-07-28T06:16:54;20.10;77.20
82126;DHT22;71668;51.400;6.758;2023-07-28T06:19:23;20.00;77.20
82126;DHT22;71668;51.400;6.758;2023-07-28T06:21:53;20.00;77.20
82126;DHT22;71668;51.400;6.758;2023-07-28T06:24:21;20.10;77.40
82126;DHT22;71668;51.400;6.758;2023-07-28T06:26:48;20.10;77.30
82126;DHT22;71668;51.400;6.758;2023-07-28T06:29:17;20.10;77.30
82126;DHT22;71668;51.400;6.758;2023-07-28T06:31:44;20.10;77.20
82126;DHT22;71668;51.400;6.758;2023-07-28T06:34:11;20.20;77.20
82126;DHT22;71668;51.400;6.758;2023-07-28T06:36:38;20.30;77.00
82126;DHT22;71668;51.400;6.758;2023-07-28T06:39:05;20.30;76.60
82126;DHT22;71668;51.400;6.758;2023-07-28T06:41:32;20.40;76.50
82126;DHT22;71668;51.400;6.758;2023-07-28T06:44:00;20.40;76.40
82126;DHT22;71668;51.400;6.758;2023-07-28T06:46:28;20.50;76.30
82126;DHT22;71668;51.400;6.758;2023-07-28T06:48:56;20.60;76.00
82126;DHT22;71668;51.400;6.758;2023-07-28T06:51:23;20.70;75.80
82126;DHT22;71668;51.400;6.758;2023-07-28T06:53:51;20.90;75.50
82126;DHT22;71668;51.400;6.758;2023-07-28T06:56:18;21.00;75.10
82126;DHT22;71668;51.400;6.758;2023-07-28T06:58:45;21.10;74.90
82126;DHT22;71668;51.400;6.758;2023-07-28T07:01:27;21.10;74.60
82126;DHT22;71668;51.400;6.758;2023-07-28T07:03:53;21.10;73.80
82126;DHT22;71668;51.400;6.758;2023-07-28T07:06:24;21.20;73.80
82126;DHT22;71668;51.400;6.758;2023-07-28T07:08:53;21.30;73.60
82126;DHT22;71668;51.400;6.758;2023-07-28T07:11:20;21.40;73.10
82126;DHT22;71668;51.400;6.758;2023-07-28T07:13:47;21.40;72.90
82126;DHT22;71668;51.400;6.758;2023-07-28T07:16:15;21.40;72.60
82126;DHT22;71668;51.400;6.758;2023-07-28T07:18:51;21.30;72.70
82126;DHT22;71668;51.400;6.758;2023-07-28T07:21:18;21.30;72.90
82126;DHT22;71668;51.400;6.758;2023-07-28T07:23:45;21.20;73.00
82126;DHT22;71668;51.400;6.758;2023-07-28T07:26:24;21.30;73.00
82126;DHT22;71668;51.400;6.758;2023-07-28T07:28:52;21.40;72.90
82126;DHT22;71668;51.400;6.758;2023-07-28T07:31:19;21.40;73.30
82126;DHT22;71668;51.400;6.758;2023-07-28T07:33:46;21.40;72.60
82126;DHT22;71668;51.400;6.758;2023-07-28T07:36:14;21.50;72.50
82126;DHT22;71668;51.400;6.758;2023-07-28T07:38:41;21.50;72.40
82126;DHT22;71668;51.400;6.758;2023-07-28T07:41:08;21.60;72.20
82126;DHT22;71668;51.400;6.758;2023-07-28T07:43:38;21.70;71.80
82126;DHT22;71668;51.400;6.758;2023-07-28T07:46:05;21.90;71.40
82126;DHT22;71668;51.400;6.758;2023-07-28T07:48:32;22.10;71.20
82126;DHT22;71668;51.400;6.758;2023-07-28T07:50:59;22.20;70.40
82126;DHT22;71668;51.400;6.758;2023-07-28T07:53:26;22.40;70.10
82126;DHT22;71668;51.400;6.758;2023-07-28T07:55:53;22.70;69.30
82126;DHT22;71668;51.400;6.758;2023-07-28T07:58:19;23.00;68.40
82126;DHT22;71668;51.400;6.758;2023-07-28T08:00:48;23.30;67.80
82126;DHT22;71668;51.400;6.758;2023-07-28T08:03:15;23.50;67.10
82126;DHT22;71668;51.400;6.758;2023-07-28T08:05:42;23.40;67.00
82126;DHT22;71668;51.400;6.758;2023-07-28T08:08:09;23.30;67.00
82126;DHT22;71668;51.400;6.758;2023-07-28T08:10:38;23.10;67.20
82126;DHT22;71668;51.400;6.758;2023-07-28T08:13:05;23.00;67.30
82126;DHT22;71668;51.400;6.758;2023-07-28T08:15:32;22.90;67.40
82126;DHT22;71668;51.400;6.758;2023-07-28T08:17:59;22.80;67.80
82126;DHT22;71668;51.400;6.758;2023-07-28T08:20:26;22.70;68.10
82126;DHT22;71668;51.400;6.758;2023-07-28T08:22:53;22.70;68.50
82126;DHT22;71668;51.400;6.758;2023-07-28T08:25:20;22.70;68.70
82126;DHT22;71668;51.400;6.758;2023-07-28T08:27:49;22.60;68.90
82126;DHT22;71668;51.400;6.758;2023-07-28T08:30:16;22.70;69.00
82126;DHT22;71668;51.400;6.758;2023-07-28T08:32:43;22.60;69.00
82126;DHT22;71668;51.400;6.758;2023-07-28T08:35:10;22.80;69.00
82126;DHT22;71668;51.400;6.758;2023-07-28T08:37:40;22.80;69.00
82126;DHT22;71668;51.400;6.758;2023-07-28T08:40:07;22.80;68.90
82126;DHT22;71668;51.400;6.758;2023-07-28T08:42:36;23.00;68.60
82126;DHT22;71668;51.400;6.758;2023-07-28T08:45:04;23.40;68.20
82126;DHT22;71668;51.400;6.758;2023-07-28T08:47:32;23.60;67.40
82126;DHT22;71668;51.400;6.758;2023-07-28T08:49:59;23.80;66.50
82126;DHT22;71668;51.400;6.758;2023-07-28T08:52:26;23.90;66.20
82126;DHT22;71668;51.400;6.758;2023-07-28T08:54:53;23.80;65.70
82126;DHT22;71668;51.400;6.758;2023-07-28T08:57:20;23.60;66.00
82126;DHT22;71668;51.400;6.758;2023-07-28T08:59:48;23.50;66.80
82126;DHT22;71668;51.400;6.758;2023-07-28T09:02:18;23.70;66.90
82126;DHT22;71668;51.400;6.758;2023-07-28T09:04:47;23.70;66.50
82126;DHT22;71668;51.400;6.758;2023-07-28T09:07:15;23.90;66.10
82126;DHT22;71668;51.400;6.758;2023-07-28T09:09:42;24.40;65.00
82126;DHT22;71668;51.400;6.758;2023-07-28T09:12:09;25.10;63.40
82126;DHT22;71668;51.400;6.758;2023-07-28T09:14:37;25.20;61.60
82126;DHT22;71668;51.400;6.758;2023-07-28T09:17:10;25.20;61.70
82126;DHT22;71668;51.400;6.758;2023-07-28T09:19:54;25.30;61.10
82126;DHT22;71668;51.400;6.758;2023-07-28T09:22:22;25.70;59.90
82126;DHT22;71668;51.400;6.758;2023-07-28T09:24:50;26.10;59.00
82126;DHT22;71668;51.400;6.758;2023-07-28T09:27:25;26.20;58.10
82126;DHT22;71668;51.400;6.758;2023-07-28T09:29:54;26.00;58.50
82126;DHT22;71668;51.400;6.758;2023-07-28T09:32:27;25.80;58.50
82126;DHT22;71668;51.400;6.758;2023-07-28T09:35:12;25.50;58.90
82126;DHT22;71668;51.400;6.758;2023-07-28T09:37:41;25.20;59.40
82126;DHT22;71668;51.400;6.758;2023-07-28T09:40:11;24.90;59.70
82126;DHT22;71668;51.400;6.758;2023-07-28T09:42:43;24.80;60.20
82126;DHT22;71668;51.400;6.758;2023-07-28T09:45:11;24.80;60.40
82126;DHT22;71668;51.400;6.758;2023-07-28T09:48:01;25.00;60.50
82126;DHT22;71668;51.400;6.758;2023-07-28T09:50:32;24.90;60.80
82126;DHT22;71668;51.400;6.758;2023-07-28T09:53:02;24.60;61.00
82126;DHT22;71668;51.400;6.758;2023-07-28T09:55:30;24.40;61.90
82126;DHT22;71668;51.400;6.758;2023-07-28T09:57:58;24.30;62.30
82126;DHT22;71668;51.400;6.758;2023-07-28T10:00:27;24.50;62.10
82126;DHT22;71668;51.400;6.758;2023-07-28T10:02:56;24.80;61.30
82126;DHT22;71668;51.400;6.758;2023-07-28T10:05:24;24.80;61.00
82126;DHT22;71668;51.400;6.758;2023-07-28T10:07:52;24.70;61.10
82126;DHT22;71668;51.400;6.758;2023-07-28T10:10:19;24.80;60.90
82126;DHT22;71668;51.400;6.758;2023-07-28T10:12:49;24.80;60.40
82126;DHT22;71668;51.400;6.758;2023-07-28T10:15:18;25.00;60.10
82126;DHT22;71668;51.400;6.758;2023-07-28T10:17:50;25.10;59.60
82126;DHT22;71668;51.400;6.758;2023-07-28T10:23:16;25.00;59.60
82126;DHT22;71668;51.400;6.758;2023-07-28T10:25:45;24.80;60.10
82126;DHT22;71668;51.400;6.758;2023-07-28T10:28:32;24.60;60.30
82126;DHT22;71668;51.400;6.758;2023-07-28T10:31:02;24.80;61.30
82126;DHT22;71668;51.400;6.758;2023-07-28T10:33:32;25.30;60.00
82126;DHT22;71668;51.400;6.758;2023-07-28T10:38:45;26.50;57.10
82126;DHT22;71668;51.400;6.758;2023-07-28T10:41:16;27.20;55.50
82126;DHT22;71668;51.400;6.758;2023-07-28T10:44:58;28.20;52.70
82126;DHT22;71668;51.400;6.758;2023-07-28T10:47:26;28.30;52.10
82126;DHT22;71668;51.400;6.758;2023-07-28T10:49:52;28.10;51.90
82126;DHT22;71668;51.400;6.758;2023-07-28T10:52:23;27.80;52.10
82126;DHT22;71668;51.400;6.758;2023-07-28T10:54:50;27.60;52.20
82126;DHT22;71668;51.400;6.758;2023-07-28T10:57:17;27.40;52.70
82126;DHT22;71668;51.400;6.758;2023-07-28T10:59:44;27.10;52.90
82126;DHT22;71668;51.400;6.758;2023-07-28T11:02:14;26.90;53.10
82126;DHT22;71668;51.400;6.758;2023-07-28T11:04:46;26.80;53.50
82126;DHT22;71668;51.400;6.758;2023-07-28T11:07:16;26.90;53.00
82126;DHT22;71668;51.400;6.758;2023-07-28T11:09:42;27.20;52.60
82126;DHT22;71668;51.400;6.758;2023-07-28T11:12:10;27.40;52.00
82126;DHT22;71668;51.400;6.758;2023-07-28T11:14:37;27.50;52.00
82126;DHT22;71668;51.400;6.758;2023-07-28T11:17:05;27.40;51.70
82126;DHT22;71668;51.400;6.758;2023-07-28T11:19:33;27.00;52.20
82126;DHT22;71668;51.400;6.758;2023-07-28T11:22:00;26.50;53.10
82126;DHT22;71668;51.400;6.758;2023-07-28T11:24:27;25.90;54.30
82126;DHT22;71668;51.400;6.758;2023-07-28T11:26:54;25.40;56.10
82126;DHT22;71668;51.400;6.758;2023-07-28T11:29:25;25.00;58.10
82126;DHT22;71668;51.400;6.758;2023-07-28T11:31:52;24.50;59.90
82126;DHT22;71668;51.400;6.758;2023-07-28T11:34:19;24.30;61.40
82126;DHT22;71668;51.400;6.758;2023-07-28T11:36:46;24.50;62.00
82126;DHT22;71668;51.400;6.758;2023-07-28T11:39:14;25.10;61.90
82126;DHT22;71668;51.400;6.758;2023-07-28T11:41:43;25.80;60.50
82126;DHT22;71668;51.400;6.758;2023-07-28T11:44:11;26.50;59.20
82126;DHT22;71668;51.400;6.758;2023-07-28T11:46:40;27.20;57.80
82126;DHT22;71668;51.400;6.758;2023-07-28T11:51:41;28.30;54.30
82126;DHT22;71668;51.400;6.758;2023-07-28T11:54:12;28.70;53.00
82126;DHT22;71668;51.400;6.758;2023-07-28T11:56:45;28.90;52.10
82126;DHT22;71668;51.400;6.758;2023-07-28T11:59:15;28.80;52.10
82126;DHT22;71668;51.400;6.758;2023-07-28T12:04:25;28.00;53.80
82126;DHT22;71668;51.400;6.758;2023-07-28T12:07:12;27.80;53.70
82126;DHT22;71668;51.400;6.758;2023-07-28T12:12:13;27.20;53.70
82126;DHT22;71668;51.400;6.758;2023-07-28T12:14:43;26.90;54.10
82126;DHT22;71668;51.400;6.758;2023-07-28T12:17:32;26.80;55.30
82126;DHT22;71668;51.400;6.758;2023-07-28T12:20:07;26.60;55.50
82126;DHT22;71668;51.400;6.758;2023-07-28T12:22:41;26.60;56.20
82126;DHT22;71668;51.400;6.758;2023-07-28T12:25:10;26.80;55.10
82126;DHT22;71668;51.400;6.758;2023-07-28T12:27:37;27.00;55.10
82126;DHT22;71668;51.400;6.758;2023-07-28T12:30:05;27.10;54.20
82126;DHT22;71668;51.400;6.758;2023-07-28T12:32:42;27.10;54.60
82126;DHT22;71668;51.400;6.758;2023-07-28T12:35:29;26.90;54.60
82126;DHT22;71668;51.400;6.758;2023-07-28T12:38:02;26.90;54.70
82126;DHT22;71668;51.400;6.758;2023-07-28T12:40:35;27.10;54.50
82126;DHT22;71668;51.400;6.758;2023-07-28T12:43:05;27.40;53.80
82126;DHT22;71668;51.400;6.758;2023-07-28T12:45:33;27.70;53.20
82126;DHT22;71668;51.400;6.758;2023-07-28T12:48:03;28.00;52.40
82126;DHT22;71668;51.400;6.758;2023-07-28T12:50:30;28.30;51.20
82126;DHT22;71668;51.400;6.758;2023-07-28T12:53:07;28.40;51.10
82126;DHT22;71668;51.400;6.758;2023-07-28T12:55:42;28.30;50.40
82126;DHT22;71668;51.400;6.758;2023-07-28T12:58:12;28.10;50.90
82126;DHT22;71668;51.400;6.758;2023-07-28T13:00:42;28.10;50.70
82126;DHT22;71668;51.400;6.758;2023-07-28T13:03:12;28.20;50.60
82126;DHT22;71668;51.400;6.758;2023-07-28T13:05:39;28.20;50.30
82126;DHT22;71668;51.400;6.758;2023-07-28T13:08:09;28.20;49.40
82126;DHT22;71668;51.400;6.758;2023-07-28T13:10:36;28.20;49.30
82126;DHT22;71668;51.400;6.758;2023-07-28T13:13:06;28.10;49.30
82126;DHT22;71668;51.400;6.758;2023-07-28T13:15:39;27.90;49.30
82126;DHT22;71668;51.400;6.758;2023-07-28T13:18:06;27.80;49.60
82126;DHT22;71668;51.400;6.758;2023-07-28T13:20:34;27.70;49.60
82126;DHT22;71668;51.400;6.758;2023-07-28T13:23:01;27.40;50.30
82126;DHT22;71668;51.400;6.758;2023-07-28T13:25:28;27.30;50.90
82126;DHT22;71668;51.400;6.758;2023-07-28T13:27:55;27.20;51.30
82126;DHT22;71668;51.400;6.758;2023-07-28T13:30:22;27.30;51.70
82126;DHT22;71668;51.400;6.758;2023-07-28T13:32:49;27.40;51.70
82126;DHT22;71668;51.400;6.758;2023-07-28T13:35:16;27.30;52.00
82126;DHT22;71668;51.400;6.758;2023-07-28T13:37:43;27.20;52.40
82126;DHT22;71668;51.400;6.758;2023-07-28T13:40:10;27.10;52.60
82126;DHT22;71668;51.400;6.758;2023-07-28T13:42:39;26.90;52.50
82126;DHT22;71668;51.400;6.758;2023-07-28T13:45:08;26.80;53.10
82126;DHT22;71668;51.400;6.758;2023-07-28T13:47:35;27.00;52.80
82126;DHT22;71668;51.400;6.758;2023-07-28T13:50:02;27.20;52.30
82126;DHT22;71668;51.400;6.758;2023-07-28T13:52:28;27.30;52.20
82126;DHT22;71668;51.400;6.758;2023-07-28T13:54:56;27.30;52.00
82126;DHT22;71668;51.400;6.758;2023-07-28T13:57:26;27.30;52.10
82126;DHT22;71668;51.400;6.758;2023-07-28T13:59:53;27.10;52.00
82126;DHT22;71668;51.400;6.758;2023-07-28T14:02:20;26.90;52.50
82126;DHT22;71668;51.400;6.758;2023-07-28T14:04:47;27.00;52.80
82126;DHT22;71668;51.400;6.758;2023-07-28T14:07:14;27.10;52.50
82126;DHT22;71668;51.400;6.758;2023-07-28T14:09:41;27.20;52.20
82126;DHT22;71668;51.400;6.758;2023-07-28T14:12:08;27.10;52.00
82126;DHT22;71668;51.400;6.758;2023-07-28T14:14:35;27.20;52.40
82126;DHT22;71668;51.400;6.758;2023-07-28T14:17:02;27.20;52.50
82126;DHT22;71668;51.400;6.758;2023-07-28T14:19:29;27.10;52.70
82126;DHT22;71668;51.400;6.758;2023-07-28T14:21:56;27.20;52.90
82126;DHT22;71668;51.400;6.758;2023-07-28T14:24:22;27.20;53.20
82126;DHT22;71668;51.400;6.758;2023-07-28T14:26:49;27.20;53.70
82126;DHT22;71668;51.400;6.758;2023-07-28T14:29:16;27.20;54.00
82126;DHT22;71668;51.400;6.758;2023-07-28T14:31:43;27.20;54.30
82126;DHT22;71668;51.400;6.758;2023-07-28T14:34:10;27.10;54.50
82126;DHT22;71668;51.400;6.758;2023-07-28T14:36:38;27.10;55.00
82126;DHT22;71668;51.400;6.758;2023-07-28T14:39:05;27.10;55.30
82126;DHT22;71668;51.400;6.758;2023-07-28T14:41:33;27.10;54.40
82126;DHT22;71668;51.400;6.758;2023-07-28T14:44:00;27.20;54.00
82126;DHT22;71668;51.400;6.758;2023-07-28T14:46:27;27.20;53.40
82126;DHT22;71668;51.400;6.758;2023-07-28T14:48:54;27.30;53.30
82126;DHT22;71668;51.400;6.758;2023-07-28T14:51:22;27.10;53.10
82126;DHT22;71668;51.400;6.758;2023-07-28T14:53:49;26.90;53.50
82126;DHT22;71668;51.400;6.758;2023-07-28T14:56:17;26.70;54.10
82126;DHT22;71668;51.400;6.758;2023-07-28T14:58:44;26.50;54.60
82126;DHT22;71668;51.400;6.758;2023-07-28T15:01:11;26.40;55.00
82126;DHT22;71668;51.400;6.758;2023-07-28T15:03:38;26.20;55.40
82126;DHT22;71668;51.400;6.758;2023-07-28T15:06:06;26.20;55.90
82126;DHT22;71668;51.400;6.758;2023-07-28T15:08:33;26.10;56.30
82126;DHT22;71668;51.400;6.758;2023-07-28T15:11:00;25.90;56.60
82126;DHT22;71668;51.400;6.758;2023-07-28T15:13:27;25.80;57.00
82126;DHT22;71668;51.400;6.758;2023-07-28T15:15:54;25.70;57.30
82126;DHT22;71668;51.400;6.758;2023-07-28T15:18:21;25.60;57.60
82126;DHT22;71668;51.400;6.758;2023-07-28T15:20:48;25.50;58.10
82126;DHT22;71668;51.400;6.758;2023-07-28T15:23:15;25.40;58.20
82126;DHT22;71668;51.400;6.758;2023-07-28T15:25:42;25.30;58.40
82126;DHT22;71668;51.400;6.758;2023-07-28T15:28:10;25.20;58.70
82126;DHT22;71668;51.400;6.758;2023-07-28T15:30:37;25.20;59.00
82126;DHT22;71668;51.400;6.758;2023-07-28T15:33:05;25.10;59.20
82126;DHT22;71668;51.400;6.758;2023-07-28T15:35:32;25.20;59.30
82126;DHT22;71668;51.400;6.758;2023-07-28T15:37:59;25.20;59.20
82126;DHT22;71668;51.400;6.758;2023-07-28T15:40:26;25.20;59.00
82126;DHT22;71668;51.400;6.758;2023-07-28T15:42:53;25.20;58.80
82126;DHT22;71668;51.400;6.758;2023-07-28T15:45:20;25.10;58.90
82126;DHT22;71668;51.400;6.758;2023-07-28T15:47:48;25.00;58.90
82126;DHT22;71668;51.400;6.758;2023-07-28T15:50:15;25.00;59.20
82126;DHT22;71668;51.400;6.758;2023-07-28T15:52:42;25.00;59.30
82126;DHT22;71668;51.400;6.758;2023-07-28T15:55:09;24.90;59.40
82126;DHT22;71668;51.400;6.758;2023-07-28T15:57:36;24.80;59.70